createdAt,value
2019-05-22T00:01:44.594Z,92.94
2019-05-22T00:04:23.997Z,93.10
2019-05-22T00:06:54.721Z,93.19
2019-05-22T00:09:24.794Z,93.13
2019-05-22T00:11:56.603Z,93.18
2019-05-22T00:14:27.600Z,92.90
2019-05-22T00:16:56.632Z,92.85
2019-05-22T00:19:25.304Z,92.67
2019-05-22T00:22:01.271Z,92.63
2019-05-22T00:24:29.953Z,92.64
2019-05-22T00:27:00.583Z,92.53
2019-05-22T00:29:30.822Z,92.61
2019-05-22T00:31:59.414Z,92.37
2019-05-22T00:34:28.040Z,92.22
2019-05-22T00:36:56.772Z,92.16
2019-05-22T00:39:27.214Z,92.02
2019-05-22T00:41:56.358Z,92.15
2019-05-22T00:44:26.663Z,92.12
2019-05-22T00:46:55.781Z,91.79
2019-05-22T00:49:24.693Z,91.43
2019-05-22T00:52:04.280Z,91.60
2019-05-22T00:54:36.934Z,91.73
2019-05-22T00:57:07.513Z,91.88
2019-05-22T00:59:37.724Z,91.73
2019-05-22T01:02:07.860Z,91.80
2019-05-22T01:04:43.315Z,91.25
2019-05-22T01:07:18.825Z,91.17
2019-05-22T01:09:48.861Z,91.31
2019-05-22T01:12:27.275Z,91.47
2019-05-22T01:14:58.846Z,91.53
2019-05-22T01:17:29.756Z,91.67
2019-05-22T01:20:01.098Z,91.68
2019-05-22T01:22:31.323Z,91.62
2019-05-22T01:25:01.166Z,91.51
2019-05-22T01:27:30.172Z,91.47
2019-05-22T01:30:00.025Z,91.45
2019-05-22T01:32:33.407Z,91.34
2019-05-22T01:35:02.176Z,91.20
2019-05-22T01:37:30.745Z,91.12
2019-05-22T01:40:12.166Z,91.10
2019-05-22T01:42:41.783Z,91.19
2019-05-22T01:45:12.192Z,91.20
2019-05-22T01:47:51.054Z,91.10
2019-05-22T01:50:24.226Z,91.04
2019-05-22T01:52:55.031Z,91.04
2019-05-22T01:55:23.710Z,90.90
2019-05-22T01:57:53.238Z,91.05
2019-05-22T02:00:22.365Z,91.10
2019-05-22T02:02:52.240Z,90.90
2019-05-22T02:05:22.891Z,90.94
2019-05-22T02:07:51.726Z,91.42
2019-05-22T02:10:27.143Z,91.52
2019-05-22T02:12:59.516Z,91.82
2019-05-22T02:15:28.269Z,92.23
2019-05-22T02:17:57.661Z,92.26
2019-05-22T02:20:28.071Z,92.57
2019-05-22T02:22:57.488Z,92.76
2019-05-22T02:25:26.630Z,93.08
2019-05-22T02:27:56.802Z,93.09
2019-05-22T02:30:27.776Z,93.24
2019-05-22T02:32:56.315Z,93.43
2019-05-22T02:35:25.469Z,93.42
2019-05-22T02:37:54.804Z,93.40
2019-05-22T02:40:33.651Z,93.41
2019-05-22T02:43:02.563Z,93.23
2019-05-22T02:45:31.524Z,93.12
2019-05-22T02:48:02.354Z,93.16
2019-05-22T02:50:33.077Z,93.40
2019-05-22T02:53:03.544Z,93.52
2019-05-22T02:55:32.695Z,93.51
2019-05-22T02:58:03.737Z,93.38
2019-05-22T03:00:38.394Z,93.37
2019-05-22T03:03:07.138Z,93.20
2019-05-22T03:05:36.109Z,93.33
2019-05-22T03:08:05.618Z,93.30
2019-05-22T03:10:34.960Z,93.38
2019-05-22T03:13:04.200Z,93.37
2019-05-22T03:15:32.795Z,93.42
2019-05-22T03:18:02.734Z,93.10
2019-05-22T03:20:33.256Z,93.03
2019-05-22T03:23:19.295Z,93.09
2019-05-22T03:25:47.894Z,93.11
2019-05-22T03:28:17.164Z,93.11
2019-05-22T03:30:47.261Z,92.93
2019-05-22T03:33:16.332Z,93.05
2019-05-22T03:35:48.548Z,93.09
2019-05-22T03:38:19.162Z,93.12
2019-05-22T03:40:50.857Z,93.15
2019-05-22T03:43:28.352Z,93.21
2019-05-22T03:45:59.074Z,93.27
2019-05-22T03:48:30.614Z,93.10
2019-05-22T03:51:07.883Z,93.30
2019-05-22T03:53:37.287Z,93.23
2019-05-22T03:56:05.793Z,93.25
2019-05-22T03:58:34.645Z,93.13
2019-05-22T04:01:04.265Z,93.08
2019-05-22T04:03:33.040Z,93.13
2019-05-22T04:06:01.604Z,93.17
2019-05-22T04:08:31.030Z,93.33
2019-05-22T04:11:03.014Z,93.37
2019-05-22T04:13:33.307Z,93.18
2019-05-22T04:16:04.604Z,93.44
2019-05-22T04:18:33.461Z,93.52
2019-05-22T04:21:03.399Z,93.36
2019-05-22T04:23:32.325Z,93.50
2019-05-22T04:26:01.707Z,93.41
2019-05-22T04:28:31.272Z,93.32
2019-05-22T04:31:00.600Z,93.32
2019-05-22T04:33:31.000Z,93.36
2019-05-22T04:36:01.621Z,93.35
2019-05-22T04:38:31.487Z,93.29
2019-05-22T04:41:02.237Z,93.31
2019-05-22T04:43:34.070Z,93.44
2019-05-22T04:46:03.656Z,93.39
2019-05-22T04:48:32.800Z,93.60
2019-05-22T04:51:05.637Z,93.67
2019-05-22T04:53:34.298Z,93.80
2019-05-22T04:56:02.802Z,93.73
2019-05-22T04:58:31.969Z,93.77
2019-05-22T05:01:00.536Z,93.37
2019-05-22T05:03:30.102Z,93.36
2019-05-22T05:06:00.048Z,93.30
2019-05-22T05:08:29.380Z,92.91
2019-05-22T05:10:59.650Z,93.02
2019-05-22T05:13:28.322Z,93.07
2019-05-22T05:15:56.898Z,93.07
2019-05-22T05:18:26.228Z,93.27
2019-05-22T05:20:54.768Z,93.19
2019-05-22T05:23:23.364Z,93.03
2019-05-22T05:25:52.117Z,92.80
2019-05-22T05:28:21.996Z,92.87
2019-05-22T05:30:50.680Z,92.90
2019-05-22T05:33:19.664Z,92.95
2019-05-22T05:35:49.786Z,92.90
2019-05-22T05:38:20.167Z,92.88
2019-05-22T05:40:48.926Z,92.80
2019-05-22T05:43:17.663Z,92.61
2019-05-22T05:45:49.985Z,92.68
2019-05-22T05:48:21.184Z,92.67
2019-05-22T05:51:09.533Z,92.64
2019-05-22T05:54:01.476Z,92.62
2019-05-22T05:56:31.857Z,92.65
2019-05-22T05:59:03.056Z,92.15
2019-05-22T06:01:33.351Z,92.36
2019-05-22T06:04:03.385Z,92.29
2019-05-22T06:06:36.593Z,92.31
2019-05-22T06:09:08.646Z,92.41
2019-05-22T06:11:48.941Z,92.23
2019-05-22T06:14:29.990Z,91.89
2019-05-22T06:17:04.899Z,91.63
2019-05-22T06:19:33.544Z,91.51
2019-05-22T06:22:02.129Z,91.67
2019-05-22T06:24:37.154Z,91.64
2019-05-22T06:27:15.977Z,91.62
2019-05-22T06:30:00.792Z,91.74
2019-05-22T06:32:38.483Z,91.33
2019-05-22T06:35:09.906Z,91.42
2019-05-22T06:38:03.793Z,91.43
2019-05-22T06:40:33.308Z,91.33
2019-05-22T06:43:24.711Z,90.95
2019-05-22T06:45:53.930Z,91.10
2019-05-22T06:48:22.599Z,91.20
2019-05-22T06:50:51.858Z,90.86
2019-05-22T06:53:20.795Z,90.63
2019-05-22T06:55:50.269Z,90.77
2019-05-22T06:58:19.730Z,90.74
2019-05-22T07:00:48.579Z,91.10
2019-05-22T07:03:17.871Z,90.79
2019-05-22T07:05:46.633Z,90.58
2019-05-22T07:08:16.836Z,90.32
2019-05-22T07:10:45.490Z,90.17
2019-05-22T07:13:16.876Z,89.96
2019-05-22T07:15:47.421Z,89.07
2019-05-22T07:18:18.293Z,89.16
2019-05-22T07:20:49.554Z,89.17
2019-05-22T07:23:21.435Z,88.45
2019-05-22T07:25:51.860Z,88.53
2019-05-22T07:28:26.838Z,88.70
2019-05-22T07:30:56.346Z,88.36
2019-05-22T07:33:26.114Z,87.66
2019-05-22T07:36:16.189Z,86.52
2019-05-22T07:38:26.035Z,86.55
2019-05-22T07:40:55.779Z,86.95
2019-05-22T07:43:24.501Z,87.02
2019-05-22T07:45:54.217Z,86.39
2019-05-22T07:48:26.056Z,86.12
2019-05-22T07:50:56.248Z,86.16
2019-05-22T07:53:26.685Z,85.91
2019-05-22T07:55:56.391Z,85.75
2019-05-22T07:58:26.669Z,86.01
2019-05-22T08:00:59.458Z,86.11
2019-05-22T08:03:29.000Z,86.05
2019-05-22T08:05:59.318Z,85.36
2019-05-22T08:08:29.815Z,84.96
2019-05-22T08:10:59.271Z,84.29
2019-05-22T08:13:29.008Z,83.54
2019-05-22T08:15:57.891Z,83.16
2019-05-22T08:18:28.203Z,84.10
2019-05-22T08:20:56.932Z,85.35
2019-05-22T08:23:27.418Z,85.24
2019-05-22T08:25:58.705Z,84.03
2019-05-22T08:28:31.825Z,83.90
2019-05-22T08:31:01.433Z,83.25
2019-05-22T08:33:32.076Z,82.97
2019-05-22T08:36:01.446Z,83.15
2019-05-22T08:38:32.855Z,83.35
2019-05-22T08:41:03.168Z,81.96
2019-05-22T08:43:55.859Z,81.41
2019-05-22T08:46:05.439Z,80.95
2019-05-22T08:48:36.358Z,80.02
2019-05-22T08:51:06.178Z,79.05
2019-05-22T08:53:46.826Z,79.34
2019-05-22T08:56:06.429Z,78.62
2019-05-22T08:58:38.910Z,78.19
2019-05-22T09:01:08.402Z,78.82
2019-05-22T09:03:37.602Z,77.96
2019-05-22T09:06:06.172Z,76.46
2019-05-22T09:08:35.012Z,77.05
2019-05-22T09:11:04.185Z,76.73
2019-05-22T09:13:32.928Z,77.03
2019-05-22T09:16:02.225Z,76.87
2019-05-22T09:18:31.678Z,76.54
2019-05-22T09:21:00.264Z,75.74
2019-05-22T09:23:28.912Z,75.80
2019-05-22T09:25:58.132Z,76.75
2019-05-22T09:28:27.112Z,76.53
2019-05-22T09:30:55.790Z,74.40
2019-05-22T09:33:26.111Z,74.30
2019-05-22T09:35:54.679Z,74.72
2019-05-22T09:38:23.175Z,73.83
2019-05-22T09:40:52.233Z,74.15
2019-05-22T09:43:21.082Z,74.01
2019-05-22T09:45:49.655Z,73.58
2019-05-22T09:48:20.157Z,70.17
2019-05-22T09:50:48.867Z,69.06
2019-05-22T09:53:17.986Z,70.19
2019-05-22T09:55:47.610Z,69.15
2019-05-22T09:58:16.344Z,68.67
2019-05-22T10:00:45.072Z,69.77
2019-05-22T10:03:13.735Z,70.68
2019-05-22T10:05:42.544Z,71.03
2019-05-22T10:08:11.211Z,69.67
2019-05-22T10:10:39.772Z,69.76
2019-05-22T10:13:08.735Z,67.93
2019-05-22T10:15:37.520Z,69.10
2019-05-22T10:18:06.068Z,69.51
2019-05-22T10:20:35.110Z,68.39
2019-05-22T10:23:14.873Z,69.06
2019-05-22T10:25:35.160Z,68.69
2019-05-22T10:28:06.630Z,68.03
2019-05-22T10:30:35.531Z,67.34
2019-05-22T10:33:04.667Z,66.96
2019-05-22T10:35:33.371Z,66.99
2019-05-22T10:38:01.919Z,67.14
2019-05-22T10:40:30.580Z,66.84
2019-05-22T10:42:59.138Z,66.07
2019-05-22T10:45:28.326Z,65.82
2019-05-22T10:47:57.586Z,66.97
2019-05-22T10:50:26.623Z,66.63
2019-05-22T10:52:55.847Z,65.74
2019-05-22T10:55:25.118Z,64.90
2019-05-22T10:57:54.423Z,66.32
2019-05-22T11:00:24.393Z,65.01
2019-05-22T11:02:53.351Z,64.70
2019-05-22T11:05:22.542Z,64.85
2019-05-22T11:07:52.409Z,63.81
2019-05-22T11:10:24.407Z,63.73
2019-05-22T11:12:53.145Z,64.04
2019-05-22T11:15:23.165Z,61.99
2019-05-22T11:17:52.943Z,62.75
2019-05-22T11:20:22.120Z,61.43
2019-05-22T11:22:50.800Z,60.20
2019-05-22T11:25:20.388Z,59.14
2019-05-22T11:27:49.242Z,57.45
2019-05-22T11:30:19.446Z,56.56
2019-05-22T11:32:48.769Z,53.76
2019-05-22T11:35:18.495Z,54.76
2019-05-22T11:37:48.130Z,56.13
2019-05-22T11:40:18.039Z,56.42
2019-05-22T11:42:46.833Z,56.48
2019-05-22T11:45:16.260Z,57.29
2019-05-22T11:47:44.925Z,56.38
2019-05-22T11:50:16.320Z,57.51
2019-05-22T11:52:46.624Z,55.98
2019-05-22T11:55:16.731Z,54.95
2019-05-22T11:57:47.023Z,55.85
2019-05-22T12:00:19.280Z,55.80
2019-05-22T12:02:48.510Z,55.30
2019-05-22T12:05:17.344Z,55.51
2019-05-22T12:07:46.754Z,55.48
2019-05-22T12:10:16.421Z,53.53
2019-05-22T12:12:45.563Z,55.35
2019-05-22T12:15:15.723Z,55.17
2019-05-22T12:17:44.965Z,54.04
2019-05-22T12:20:14.710Z,53.96
2019-05-22T12:22:43.783Z,53.05
2019-05-22T12:25:15.274Z,54.85
2019-05-22T12:27:43.884Z,52.44
2019-05-22T12:30:13.816Z,54.20
2019-05-22T12:32:42.479Z,50.96
2019-05-22T12:35:14.287Z,49.42
2019-05-22T12:37:43.036Z,49.52
2019-05-22T12:40:14.279Z,47.62
2019-05-22T12:42:44.375Z,50.04
2019-05-22T12:45:13.782Z,51.15
2019-05-22T12:47:43.382Z,48.74
2019-05-22T12:50:15.444Z,49.82
2019-05-22T12:52:48.735Z,48.29
2019-05-22T12:55:19.657Z,48.89
2019-05-22T12:57:49.486Z,47.83
2019-05-22T13:00:22.490Z,45.49
2019-05-22T13:02:52.803Z,43.54
2019-05-22T13:05:21.692Z,43.53
2019-05-22T13:07:51.348Z,43.50
2019-05-22T13:10:22.327Z,44.66
2019-05-22T13:12:51.575Z,42.79
2019-05-22T13:15:23.169Z,45.63
2019-05-22T13:17:53.872Z,46.11
2019-05-22T13:20:41.270Z,48.94
2019-05-22T13:22:55.766Z,50.72
2019-05-22T13:25:27.317Z,49.75
2019-05-22T13:27:56.930Z,48.18
2019-05-22T13:30:28.679Z,46.85
2019-05-22T13:32:57.096Z,45.38
2019-05-22T13:35:26.794Z,46.38
2019-05-22T13:37:57.210Z,45.81
2019-05-22T13:40:28.149Z,44.07
2019-05-22T13:42:58.826Z,44.18
2019-05-22T13:45:30.714Z,43.32
2019-05-22T13:47:59.383Z,43.43
2019-05-22T13:50:40.479Z,43.27
2019-05-22T13:53:10.918Z,43.40
2019-05-22T13:55:39.643Z,43.15
2019-05-22T13:58:08.962Z,43.31
2019-05-22T14:00:37.735Z,43.98
2019-05-22T14:03:06.577Z,43.73
2019-05-22T14:05:37.866Z,42.82
2019-05-22T14:08:08.798Z,41.83
2019-05-22T14:10:38.850Z,41.82
2019-05-22T14:13:07.394Z,43.58
2019-05-22T14:15:48.730Z,42.99
2019-05-22T14:18:06.891Z,43.19
2019-05-22T14:20:35.608Z,42.11
2019-05-22T14:23:04.608Z,42.26
2019-05-22T14:25:33.667Z,40.73
2019-05-22T14:28:02.977Z,41.14
2019-05-22T14:30:31.864Z,42.55
2019-05-22T14:33:04.198Z,42.64
2019-05-22T14:35:46.959Z,43.27
2019-05-22T14:38:04.296Z,42.58
2019-05-22T14:40:33.607Z,42.87
2019-05-22T14:43:02.506Z,42.86
2019-05-22T14:45:31.331Z,41.51
2019-05-22T14:48:00.307Z,41.36
2019-05-22T14:50:32.784Z,40.81
2019-05-22T14:53:00.294Z,41.19
2019-05-22T14:55:30.019Z,41.61
2019-05-22T14:57:59.468Z,42.10
2019-05-22T15:00:29.606Z,44.14
2019-05-22T15:02:59.645Z,43.85
2019-05-22T15:05:28.648Z,44.48
2019-05-22T15:07:57.545Z,43.89
2019-05-22T15:10:26.670Z,42.50
2019-05-22T15:12:55.245Z,43.32
2019-05-22T15:15:24.677Z,45.44
2019-05-22T15:17:53.309Z,44.41
2019-05-22T15:20:25.412Z,43.97
2019-05-22T15:22:56.297Z,43.66
2019-05-22T15:25:24.480Z,42.98
2019-05-22T15:27:53.308Z,41.52
2019-05-22T15:30:22.076Z,41.16
2019-05-22T15:32:50.906Z,40.83
2019-05-22T15:35:19.845Z,42.10
2019-05-22T15:37:48.565Z,42.06
2019-05-22T15:40:19.464Z,42.77
2019-05-22T15:42:48.826Z,41.56
2019-05-22T15:45:21.910Z,41.44
2019-05-22T15:47:56.239Z,41.75
2019-05-22T15:50:28.863Z,42.03
2019-05-22T15:53:02.559Z,41.49
2019-05-22T15:55:34.138Z,42.28
2019-05-22T15:58:05.366Z,42.29
2019-05-22T16:00:36.847Z,42.43
2019-05-22T16:03:11.971Z,41.96
2019-05-22T16:05:42.273Z,42.37
2019-05-22T16:08:12.330Z,43.53
2019-05-22T16:10:42.995Z,43.57
2019-05-22T16:13:14.787Z,43.35
2019-05-22T16:15:45.411Z,44.01
2019-05-22T16:18:14.835Z,43.68
2019-05-22T16:20:44.379Z,43.90
2019-05-22T16:23:25.896Z,44.44
2019-05-22T16:25:55.772Z,45.25
2019-05-22T16:28:24.891Z,44.37
2019-05-22T16:30:53.725Z,44.66
2019-05-22T16:33:23.940Z,44.59
2019-05-22T16:35:52.974Z,45.01
2019-05-22T16:38:23.498Z,44.76
2019-05-22T16:40:52.237Z,45.02
2019-05-22T16:43:22.634Z,45.11
2019-05-22T16:45:52.448Z,45.84
2019-05-22T16:48:29.134Z,46.25
2019-05-22T16:50:56.031Z,46.37
2019-05-22T16:56:34.540Z,47.01
2019-05-22T17:01:58.732Z,47.99
2019-05-22T17:04:17.306Z,48.46
2019-05-22T17:06:46.140Z,47.78
2019-05-22T17:09:16.530Z,47.84
2019-05-22T17:11:45.960Z,48.18
2019-05-22T17:14:15.636Z,51.92
2019-05-22T17:16:44.713Z,52.04
2019-05-22T17:19:26.570Z,52.72
2019-05-22T17:21:45.397Z,53.94
2019-05-22T17:24:14.257Z,54.98
2019-05-22T17:26:44.050Z,55.46
2019-05-22T17:29:12.873Z,57.75
2019-05-22T17:31:41.493Z,58.00
2019-05-22T17:34:27.864Z,58.70
2019-05-22T17:36:57.354Z,60.05
2019-05-22T17:39:27.886Z,60.75
2019-05-22T17:41:57.085Z,59.98
2019-05-22T17:44:27.320Z,60.89
2019-05-22T17:46:56.178Z,61.23
2019-05-22T17:49:25.194Z,62.25
2019-05-22T17:51:53.847Z,63.51
2019-05-22T17:54:22.840Z,62.89
2019-05-22T17:56:52.264Z,62.63
2019-05-22T17:59:21.007Z,62.36
2019-05-22T18:01:49.769Z,63.00
2019-05-22T18:04:18.449Z,63.15
2019-05-22T18:06:47.063Z,63.71
2019-05-22T18:09:16.045Z,63.96
2019-05-22T18:11:44.704Z,64.82
2019-05-22T18:14:13.697Z,64.98
2019-05-22T18:16:42.463Z,65.98
2019-05-22T18:19:11.489Z,65.90
2019-05-22T18:21:41.233Z,65.97
2019-05-22T18:24:10.776Z,65.47
2019-05-22T18:26:39.285Z,66.32
2019-05-22T18:29:08.078Z,66.08
2019-05-22T18:31:36.915Z,66.29
2019-05-22T18:34:05.576Z,65.94
2019-05-22T18:36:34.348Z,65.77
2019-05-22T18:39:02.911Z,65.30
2019-05-22T18:41:31.477Z,65.83
2019-05-22T18:44:00.545Z,66.55
2019-05-22T18:46:29.382Z,66.89
2019-05-22T18:48:58.037Z,66.36
2019-05-22T18:51:26.718Z,66.38
2019-05-22T18:53:55.331Z,66.45
2019-05-22T18:56:23.953Z,66.65
2019-05-22T18:58:53.458Z,66.27
2019-05-22T19:01:22.259Z,66.61
2019-05-22T19:03:50.761Z,67.31
2019-05-22T19:06:29.640Z,67.76
2019-05-22T19:08:50.081Z,67.94
2019-05-22T19:11:18.750Z,68.25
2019-05-22T19:13:47.282Z,68.12
2019-05-22T19:16:15.818Z,67.66
2019-05-22T19:18:44.382Z,67.79
2019-05-22T19:21:13.061Z,67.20
2019-05-22T19:23:41.754Z,67.81
2019-05-22T19:26:10.379Z,68.03
2019-05-22T19:28:43.855Z,68.42
2019-05-22T19:31:10.135Z,68.50
2019-05-22T19:33:38.796Z,69.01
2019-05-22T19:36:07.420Z,69.00
2019-05-22T19:38:36.269Z,69.47
2019-05-22T19:41:05.193Z,69.43
2019-05-22T19:43:33.762Z,69.92
2019-05-22T19:46:02.690Z,69.57
2019-05-22T19:48:31.317Z,69.87
2019-05-22T19:51:02.077Z,70.38
2019-05-22T19:53:31.399Z,70.15
2019-05-22T19:56:00.143Z,69.78
2019-05-22T19:58:28.655Z,69.94
2019-05-22T20:00:57.433Z,69.97
2019-05-22T20:03:26.657Z,69.65
2019-05-22T20:05:55.512Z,69.42
2019-05-22T20:08:24.152Z,70.12
2019-05-22T20:10:52.984Z,70.71
2019-05-22T20:13:23.697Z,70.42
2019-05-22T20:15:52.433Z,70.75
2019-05-22T20:18:21.547Z,70.83
2019-05-22T20:20:50.181Z,70.97
2019-05-22T20:23:34.295Z,70.26
2019-05-22T20:25:50.239Z,70.16
2019-05-22T20:28:19.788Z,71.36
2019-05-22T20:30:48.775Z,71.41
2019-05-22T20:33:17.734Z,72.71
2019-05-22T20:35:46.297Z,73.42
2019-05-22T20:38:15.416Z,73.65
2019-05-22T20:40:44.078Z,73.33
2019-05-22T20:43:12.891Z,72.75
2019-05-22T20:45:43.401Z,72.66
2019-05-22T20:48:15.454Z,72.63
2019-05-22T20:50:44.218Z,72.06
2019-05-22T20:53:14.343Z,70.75
2019-05-22T20:55:43.658Z,70.93
2019-05-22T20:58:14.338Z,70.99
2019-05-22T21:00:43.578Z,70.74
2019-05-22T21:03:12.327Z,71.06
2019-05-22T21:05:42.737Z,71.11
2019-05-22T21:08:16.054Z,71.37
2019-05-22T21:10:47.571Z,70.86
2019-05-22T21:13:16.895Z,71.81
2019-05-22T21:15:46.619Z,72.47
2019-05-22T21:18:17.310Z,72.64
2019-05-22T21:20:54.660Z,73.05
2019-05-22T21:23:16.856Z,72.99
2019-05-22T21:25:45.798Z,73.37
2019-05-22T21:28:14.609Z,73.38
2019-05-22T21:30:43.612Z,72.20
2019-05-22T21:33:12.568Z,72.19
2019-05-22T21:35:41.191Z,72.26
2019-05-22T21:38:11.443Z,72.61
2019-05-22T21:40:40.421Z,73.11
2019-05-22T21:43:08.959Z,73.04
2019-05-22T21:45:37.498Z,72.64
2019-05-22T21:48:06.666Z,72.70
2019-05-22T21:50:35.193Z,72.51
2019-05-22T21:53:06.249Z,73.06
2019-05-22T21:55:35.270Z,75.12
2019-05-22T21:58:05.569Z,75.49
2019-05-22T22:00:44.531Z,74.82
2019-05-22T22:03:19.332Z,74.82
2019-05-22T22:05:48.333Z,74.77
2019-05-22T22:08:16.996Z,74.25
2019-05-22T22:10:46.322Z,74.11
2019-05-22T22:13:15.127Z,74.00
2019-05-22T22:15:44.395Z,74.23
2019-05-22T22:18:13.270Z,74.54
2019-05-22T22:20:43.201Z,74.47
2019-05-22T22:23:15.209Z,74.78
2019-05-22T22:25:44.097Z,74.84
2019-05-22T22:28:15.452Z,74.74
2019-05-22T22:30:55.126Z,74.61
2019-05-22T22:33:27.255Z,74.72
2019-05-22T22:35:56.895Z,74.55
2019-05-22T22:38:27.769Z,74.05
2019-05-22T22:40:57.375Z,73.72
2019-05-22T22:43:32.547Z,73.70
2019-05-22T22:46:19.572Z,74.21
2019-05-22T22:48:51.732Z,74.45
2019-05-22T22:51:21.045Z,74.49
2019-05-22T22:53:50.251Z,74.68
2019-05-22T22:56:20.783Z,75.08
2019-05-22T22:58:49.324Z,75.30
2019-05-22T23:01:21.280Z,75.49
2019-05-22T23:03:51.920Z,74.60
2019-05-22T23:06:20.715Z,74.62
2019-05-22T23:08:50.258Z,74.59
2019-05-22T23:11:20.904Z,75.30
2019-05-22T23:13:49.870Z,75.78
2019-05-22T23:16:21.022Z,76.17
2019-05-22T23:19:01.969Z,76.81
2019-05-22T23:21:30.418Z,77.17
2019-05-22T23:23:58.629Z,77.08
2019-05-22T23:26:27.589Z,77.59
2019-05-22T23:28:56.140Z,77.58
2019-05-22T23:31:25.229Z,77.68
2019-05-22T23:33:53.764Z,77.62
2019-05-22T23:36:23.259Z,77.35
2019-05-22T23:38:52.922Z,77.56
2019-05-22T23:41:23.334Z,77.90
2019-05-22T23:43:52.334Z,78.18
2019-05-22T23:46:22.695Z,78.40
2019-05-22T23:48:51.734Z,78.16
2019-05-22T23:51:20.716Z,77.70
2019-05-22T23:53:50.869Z,77.87
2019-05-22T23:56:20.263Z,77.55
2019-05-22T23:58:52.757Z,77.69
